Time,TemperatureF,DewpointF,PressureIn,WindDirection,WindDirectionDegrees,WindSpeedMPH,WindSpeedGustMPH,Humidity,HourlyPrecipIn,Conditions,Clouds,dailyrainin,SolarRadiationWatts/m^2,SoftwareType,DateUTC
2013-01-11 00:02:00,50.0,30.0,-100.00,West,264,14.0,24.0,46,0.00,,,0.00,0.000000,,2013-01-11 07:02:00,
2013-01-11 00:32:00,49.0,32.0,-100.00,West,267,16.0,23.0,51,0.00,,,0.00,0.000000,,2013-01-11 07:32:00,
2013-01-11 00:42:00,49.0,32.0,-100.00,West,267,16.0,23.0,51,0.00,,,0.00,0.000000,,2013-01-11 07:42:00,
2013-01-11 00:52:00,49.0,32.0,-100.00,West,267,16.0,23.0,51,0.00,,,0.00,0.000000,,2013-01-11 07:52:00,
2013-01-11 01:02:00,49.0,32.0,-100.00,West,267,16.0,23.0,51,0.00,,,0.00,0.000000,,2013-01-11 08:02:00,
2013-01-11 01:32:00,48.0,31.0,-100.00,WSW,257,15.0,27.0,52,0.00,,,0.00,0.000000,,2013-01-11 08:32:00,
2013-01-11 01:42:00,48.0,31.0,-100.00,WSW,257,15.0,27.0,52,0.00,,,0.00,0.000000,,2013-01-11 08:42:00,
2013-01-11 01:52:00,48.0,31.0,-100.00,WSW,257,15.0,27.0,52,0.00,,,0.00,0.000000,,2013-01-11 08:52:00,
2013-01-11 02:02:00,48.0,31.0,-100.00,WSW,257,15.0,27.0,52,0.00,,,0.00,0.000000,,2013-01-11 09:02:00,
2013-01-11 02:32:00,47.0,28.0,-100.00,West,271,10.0,25.0,47,0.00,,,0.00,0.000000,,2013-01-11 09:32:00,
2013-01-11 02:42:00,47.0,28.0,-100.00,West,271,10.0,25.0,47,0.00,,,0.00,0.000000,,2013-01-11 09:42:00,
2013-01-11 02:52:00,47.0,28.0,-100.00,West,271,10.0,25.0,47,0.00,,,0.00,0.000000,,2013-01-11 09:52:00,
2013-01-11 03:02:00,47.0,28.0,-100.00,West,271,10.0,25.0,47,0.00,,,0.00,0.000000,,2013-01-11 10:02:00,
2013-01-11 03:42:00,48.0,22.0,-100.00,West,278,10.0,17.0,36,0.00,,,0.00,0.000000,,2013-01-11 10:42:00,
2013-01-11 03:52:00,48.0,22.0,-100.00,West,278,10.0,17.0,36,0.00,,,0.00,0.000000,,2013-01-11 10:52:00,
2013-01-11 04:02:00,48.0,22.0,-100.00,West,278,10.0,17.0,36,0.00,,,0.00,0.000000,,2013-01-11 11:02:00,
2013-01-11 04:33:00,46.0,21.0,-100.00,West,273,10.0,19.0,36,0.00,,,0.00,0.000000,,2013-01-11 11:33:00,
2013-01-11 04:43:00,46.0,21.0,-100.00,West,273,10.0,19.0,36,0.00,,,0.00,0.000000,,2013-01-11 11:43:00,
2013-01-11 04:53:00,46.0,21.0,-100.00,West,273,10.0,19.0,36,0.00,,,0.00,0.000000,,2013-01-11 11:53:00,
2013-01-11 05:02:00,46.0,21.0,-100.00,West,273,10.0,19.0,36,0.00,,,0.00,0.000000,,2013-01-11 12:02:00,
2013-01-11 05:33:00,46.0,22.0,-100.00,WNW,285,8.0,14.0,38,0.00,,,-99.99,0.000000,,2013-01-11 12:33:00,
2013-01-11 05:43:00,46.0,22.0,-100.00,WNW,285,8.0,14.0,38,0.00,,,-99.99,0.000000,,2013-01-11 12:43:00,
2013-01-11 05:53:00,46.0,22.0,-100.00,WNW,285,8.0,14.0,38,0.00,,,-99.99,0.000000,,2013-01-11 12:53:00,
2013-01-11 06:02:00,46.0,22.0,-100.00,WNW,285,8.0,14.0,38,0.00,,,-99.99,0.000000,,2013-01-11 13:02:00,
2013-01-11 06:33:00,43.0,22.0,-100.00,NW,310,4.0,16.0,42,0.00,,,-99.99,0.000000,,2013-01-11 13:33:00,
2013-01-11 06:43:00,43.0,22.0,-100.00,NW,310,4.0,16.0,42,0.00,,,-99.99,0.000000,,2013-01-11 13:43:00,
2013-01-11 06:53:00,43.0,22.0,-100.00,NW,310,4.0,16.0,42,0.00,,,-99.99,0.000000,,2013-01-11 13:53:00,
2013-01-11 07:03:00,43.0,22.0,-100.00,NW,310,4.0,16.0,42,0.00,,,-99.99,0.000000,,2013-01-11 14:03:00,
2013-01-11 07:33:00,41.0,25.0,-100.00,North,349,2.0,11.0,53,0.00,,,0.00,0.000000,,2013-01-11 14:33:00,
2013-01-11 07:43:00,41.0,25.0,-100.00,North,349,2.0,11.0,53,0.00,,,0.00,0.000000,,2013-01-11 14:43:00,
2013-01-11 07:53:00,41.0,25.0,-100.00,North,349,2.0,11.0,53,0.00,,,0.00,0.000000,,2013-01-11 14:53:00,
2013-01-11 08:03:00,41.0,25.0,-100.00,North,349,2.0,11.0,53,0.00,,,0.00,0.000000,,2013-01-11 15:03:00,
2013-01-11 08:43:00,39.0,25.0,-100.00,North,4,1.0,6.0,56,0.00,,,0.00,0.000000,,2013-01-11 15:43:00,
2013-01-11 08:53:00,39.0,25.0,-100.00,North,4,1.0,6.0,56,0.00,,,0.00,0.000000,,2013-01-11 15:53:00,
2013-01-11 09:02:00,39.0,25.0,-100.00,North,4,1.0,6.0,56,0.00,,,0.00,0.000000,,2013-01-11 16:02:00,
2013-01-11 09:33:00,37.0,18.0,-100.00,East,100,2.0,3.0,45,0.00,,,0.00,10.000000,,2013-01-11 16:33:00,
2013-01-11 10:33:00,44.0,16.0,-100.00,South,175,0.0,8.0,32,-99.99,,,0.00,174.000000,,2013-01-11 17:33:00,
2013-01-11 11:43:00,55.0,23.0,-100.00,SW,220,3.0,3.0,29,-99.99,,,0.00,411.000000,,2013-01-11 18:43:00,
2013-01-11 11:53:00,55.0,23.0,-100.00,SW,220,3.0,3.0,29,-99.99,,,0.00,411.000000,,2013-01-11 18:53:00,
2013-01-11 12:02:00,55.0,23.0,-100.00,SW,220,3.0,3.0,29,-99.99,,,0.00,411.000000,,2013-01-11 19:02:00,
2013-01-11 12:33:00,53.0,15.0,-100.00,SSW,210,0.0,6.0,22,0.00,,,0.00,599.000000,,2013-01-11 19:33:00,
2013-01-11 12:43:00,53.0,15.0,-100.00,SSW,210,0.0,6.0,22,0.00,,,0.00,599.000000,,2013-01-11 19:43:00,
2013-01-11 12:53:00,53.0,15.0,-100.00,SSW,210,0.0,6.0,22,0.00,,,0.00,599.000000,,2013-01-11 19:53:00,
2013-01-11 13:02:00,53.0,15.0,-100.00,SSW,210,0.0,6.0,22,0.00,,,0.00,599.000000,,2013-01-11 20:02:00,
2013-01-11 13:33:00,59.0,13.0,-100.00,WSW,238,0.0,4.0,16,0.00,,,0.00,731.000000,,2013-01-11 20:33:00,
2013-01-11 13:43:00,59.0,13.0,-100.00,WSW,238,0.0,4.0,16,0.00,,,0.00,731.000000,,2013-01-11 20:43:00,
2013-01-11 13:53:00,59.0,13.0,-100.00,WSW,238,0.0,4.0,16,0.00,,,0.00,731.000000,,2013-01-11 20:53:00,
2013-01-11 14:03:00,59.0,13.0,-100.00,WSW,238,0.0,4.0,16,0.00,,,0.00,731.000000,,2013-01-11 21:03:00,
2013-01-11 14:33:00,61.0,10.0,-100.00,NNW,347,4.0,7.0,13,0.00,,,0.00,788.000000,,2013-01-11 21:33:00,
2013-01-11 14:43:00,61.0,10.0,-100.00,NNW,347,4.0,7.0,13,0.00,,,0.00,788.000000,,2013-01-11 21:43:00,
2013-01-11 14:53:00,61.0,10.0,-100.00,NNW,347,4.0,7.0,13,0.00,,,0.00,788.000000,,2013-01-11 21:53:00,
2013-01-11 15:02:00,61.0,10.0,-100.00,NNW,347,4.0,7.0,13,0.00,,,0.00,788.000000,,2013-01-11 22:02:00,
2013-01-11 15:33:00,59.0,8.0,-100.00,NW,305,2.0,11.0,13,0.00,,,0.00,763.000000,,2013-01-11 22:33:00,
2013-01-11 16:02:00,59.0,8.0,-100.00,NW,305,2.0,11.0,13,0.00,,,0.00,763.000000,,2013-01-11 23:02:00,
2013-01-11 16:33:00,58.0,7.0,-100.00,WNW,293,3.0,9.0,13,0.00,,,0.00,656.000000,,2013-01-11 23:33:00,
2013-01-11 16:43:00,58.0,7.0,-100.00,WNW,293,3.0,9.0,13,0.00,,,0.00,656.000000,,2013-01-11 23:43:00,
2013-01-11 16:53:00,58.0,7.0,-100.00,WNW,293,3.0,9.0,13,0.00,,,0.00,656.000000,,2013-01-11 23:53:00,
2013-01-11 17:02:00,58.0,7.0,-100.00,WNW,293,3.0,9.0,13,0.00,,,0.00,656.000000,,2013-01-12 00:02:00,
2013-01-11 17:33:00,59.0,10.0,-100.00,NW,317,1.0,8.0,14,0.00,,,0.00,483.000000,,2013-01-12 00:33:00,
2013-01-11 17:43:00,59.0,10.0,-100.00,NW,317,1.0,8.0,14,0.00,,,0.00,483.000000,,2013-01-12 00:43:00,
2013-01-11 17:53:00,59.0,10.0,-100.00,NW,317,1.0,8.0,14,0.00,,,0.00,483.000000,,2013-01-12 00:53:00,
2013-01-11 18:02:00,59.0,10.0,-100.00,NW,317,1.0,8.0,14,0.00,,,0.00,483.000000,,2013-01-12 01:02:00,
2013-01-11 18:33:00,56.0,16.0,-100.00,SE,141,0.0,8.0,20,0.00,,,0.00,266.000000,,2013-01-12 01:33:00,
2013-01-11 18:43:00,56.0,16.0,-100.00,SE,141,0.0,8.0,20,0.00,,,0.00,266.000000,,2013-01-12 01:43:00,
2013-01-11 18:52:00,56.0,16.0,-100.00,SE,141,0.0,8.0,20,0.00,,,0.00,266.000000,,2013-01-12 01:52:00,
2013-01-11 19:02:00,56.0,16.0,-100.00,SE,141,0.0,8.0,20,0.00,,,0.00,266.000000,,2013-01-12 02:02:00,
2013-01-11 19:33:00,51.0,19.0,-100.00,SE,134,0.0,4.0,28,0.00,,,0.00,47.000000,,2013-01-12 02:33:00,
2013-01-11 19:43:00,51.0,19.0,-100.00,SE,134,0.0,4.0,28,0.00,,,0.00,47.000000,,2013-01-12 02:43:00,
2013-01-11 19:53:00,51.0,19.0,-100.00,SE,134,0.0,4.0,28,0.00,,,0.00,47.000000,,2013-01-12 02:53:00,
2013-01-11 20:02:00,51.0,19.0,-100.00,SE,134,0.0,4.0,28,0.00,,,0.00,47.000000,,2013-01-12 03:02:00,
2013-01-11 20:33:00,44.0,17.0,-100.00,NNW,333,0.0,1.0,33,0.00,,,0.00,0.000000,,2013-01-12 03:33:00,
2013-01-11 20:43:00,44.0,17.0,-100.00,NNW,333,0.0,1.0,33,0.00,,,0.00,0.000000,,2013-01-12 03:43:00,
2013-01-11 20:53:00,44.0,17.0,-100.00,NNW,333,0.0,1.0,33,0.00,,,0.00,0.000000,,2013-01-12 03:53:00,
2013-01-11 21:02:00,44.0,17.0,-100.00,NNW,333,0.0,1.0,33,0.00,,,0.00,0.000000,,2013-01-12 04:02:00,
2013-01-11 21:32:00,41.0,17.0,-100.00,ENE,58,1.0,3.0,37,0.00,,,0.00,0.000000,,2013-01-12 04:32:00,
2013-01-11 21:42:00,41.0,17.0,-100.00,ENE,58,1.0,3.0,37,0.00,,,0.00,0.000000,,2013-01-12 04:42:00,
2013-01-11 21:52:00,41.0,17.0,-100.00,ENE,58,1.0,3.0,37,0.00,,,0.00,0.000000,,2013-01-12 04:52:00,
2013-01-11 22:03:00,41.0,17.0,-100.00,ENE,58,1.0,3.0,37,0.00,,,0.00,0.000000,,2013-01-12 05:03:00,
2013-01-11 22:32:00,41.0,13.0,-100.00,WSW,249,2.0,4.0,31,0.00,,,0.00,0.000000,,2013-01-12 05:32:00,
2013-01-11 23:33:00,43.0,19.0,-100.00,West,263,7.0,11.0,38,0.00,,,0.00,0.000000,,2013-01-12 06:33:00,
2013-01-11 23:43:00,43.0,19.0,-100.00,West,263,7.0,11.0,38,0.00,,,0.00,0.000000,,2013-01-12 06:43:00,
2013-01-11 23:52:00,43.0,19.0,-100.00,West,263,7.0,11.0,38,0.00,,,0.00,0.000000,,2013-01-12 06:52:00,